Meteoalarm - Portugal e Ilhas:

Avisos Meteorológicos para Portugal e Ilhas


Visite-nos no Facebook:

Visite-nos no Facebook


Madeira Webcams:


Grupo MeteoRAM Facebook:

Junte-se ao melhor e mais completo grupo de Meteorologia da Região Autónoma da Madeira



Situação meteorológica que não inspira cuidado.    Sem avisos

Weather Underground Histórico da Estação

Diário Resumo para julho 20, 2018 Unidades:  Métrico    Inglês   Ambos
« Anterior Dia
Seguinte Dia »
Diário Semanal Mensal Anual Personalizado
  Atualmente: Alto: Baixo: Média:
Temperatura: 24.4 °C -17.8 °C 20.1 °C 22.1 °C
Ponto de orvalho: 18.8 °C -17.8 °C 13.4 °C 16.6 °C
Humidade: 71 % Humidity % 58 % 71 %
Velocidade do Vento: 11.1 km/h 0 km/h 2.6 km/h 7.7 km/h
Rajada de vento: 29.5 km/h 0 km/h - -
Vento:North - - WNW
Pressão Atmosférica: 1021.6 hPa 0 hPa 1020.2 hPa -
Precipitação: 0 mm      
Historical Graphs
 
 
Dados Tabulares para julho 20, 2018
Hora Temperatura Ponto de orvalho Pressão Atmosférica Vento Velocidade do Vento Rajada de vento Humidade Taxa de Precipitação (Por hora)
-17.8 °C -17.8 °C 0 hPa Calm     Humidity % 0 mm
00:04 20.5 °C 15.5 °C 1022.2 hPa WNW 12.2 km/h 20.9 km/h 73 % 0 mm
00:09 20.5 °C 15.5 °C 1022.2 hPa WNW 6.1 km/h 20.9 km/h 73 % 0 mm
00:14 20.5 °C 15.5 °C 1021.9 hPa NW 9.7 km/h 25.6 km/h 73 % 0 mm
00:19 20.5 °C 15.5 °C 1021.9 hPa NW 5 km/h 25.6 km/h 73 % 0 mm
00:24 20.4 °C 15.4 °C 1021.9 hPa NW 6.1 km/h 14.8 km/h 73 % 0 mm
00:29 20.4 °C 15.4 °C 1021.9 hPa NW 8.7 km/h 20.9 km/h 73 % 0 mm
00:34 20.3 °C 15.3 °C 1021.9 hPa NNW 8.7 km/h 20.9 km/h 73 % 0 mm
00:39 20.3 °C 15.3 °C 1021.9 hPa NNW 5 km/h 14.8 km/h 73 % 0 mm
00:44 20.2 °C 15.4 °C 1021.6 hPa NW 7.2 km/h 17.2 km/h 74 % 0 mm
00:49 20.2 °C 15.2 °C 1021.6 hPa NW 8.7 km/h 17.2 km/h 73 % 0 mm
00:54 20.3 °C 15.3 °C 1021.6 hPa NW 6.1 km/h 17.2 km/h 73 % 0 mm
00:59 20.3 °C 15.1 °C 1021.6 hPa NW 7.2 km/h 15.8 km/h 72 % 0 mm
01:04 20.3 °C 15.1 °C 1021.6 hPa NW 6.1 km/h 17.2 km/h 72 % 0 mm
01:09 20.4 °C 15.2 °C 1021.6 hPa NW 8.7 km/h 17.2 km/h 72 % 0 mm
01:14 20.4 °C 15.2 °C 1021.6 hPa NNW 7.2 km/h 19.5 km/h 72 % 0 mm
01:19 20.4 °C 15.2 °C 1021.6 hPa NNW 8.7 km/h 19.5 km/h 72 % 0 mm
01:24 20.4 °C 15 °C 1021.6 hPa NNW 6.1 km/h 15.8 km/h 71 % 0 mm
01:29 20.4 °C 15 °C 1021.6 hPa NW 9.7 km/h 18.3 km/h 71 % 0 mm
01:34 20.4 °C 15 °C 1021.2 hPa WNW 5 km/h 18.3 km/h 71 % 0 mm
01:39 20.4 °C 15 °C 1021.2 hPa WNW 7.2 km/h 18.3 km/h 71 % 0 mm
01:44 20.4 °C 15.2 °C 1021.2 hPa WNW 5 km/h 14.8 km/h 72 % 0 mm
01:49 20.3 °C 15.1 °C 1021.2 hPa NW 7.2 km/h 14.8 km/h 72 % 0 mm
01:54 20.3 °C 15.1 °C 1021.2 hPa NW 6.1 km/h 14.8 km/h 72 % 0 mm
01:59 20.3 °C 15.3 °C 1021.2 hPa NW 6.1 km/h 14.8 km/h 73 % 0 mm
02:04 20.3 °C 15.3 °C 1021.2 hPa NW 6.1 km/h 18.3 km/h 73 % 0 mm
02:09 20.3 °C 15.3 °C 1021.2 hPa NW 9.7 km/h 19.5 km/h 73 % 0 mm
02:14 20.3 °C 15.3 °C 1021.2 hPa NW 5 km/h 19.5 km/h 73 % 0 mm
02:19 20.3 °C 15.5 °C 1020.9 hPa NNW 8.7 km/h 19.5 km/h 74 % 0 mm
02:24 20.2 °C 15.4 °C 1020.9 hPa NNW 6.1 km/h 18.3 km/h 74 % 0 mm
02:29 20.1 °C 15.3 °C 1020.9 hPa NNW 6.1 km/h 18.3 km/h 74 % 0 mm
02:34 20.1 °C 15.3 °C 1020.9 hPa NNW 6.1 km/h 18.3 km/h 74 % 0 mm
02:39 20.1 °C 15.6 °C 1020.5 hPa NNW 8.7 km/h 15.8 km/h 75 % 0 mm
02:44 20.1 °C 15.6 °C 1020.5 hPa North 7.2 km/h 18.3 km/h 75 % 0 mm
02:49 20.1 °C 15.6 °C 1020.5 hPa NW 6.1 km/h 18.3 km/h 75 % 0 mm
02:54 20.1 °C 15.6 °C 1020.5 hPa NW 6.1 km/h 19.5 km/h 75 % 0 mm
02:59 20.2 °C 15.7 °C 1020.5 hPa NW 5 km/h 21.9 km/h 75 % 0 mm
03:04 20.2 °C 15.7 °C 1020.5 hPa NNW 9.7 km/h 21.9 km/h 75 % 0 mm
03:09 20.2 °C 15.8 °C 1020.5 hPa North 6.1 km/h 30.6 km/h 76 % 0 mm
03:14 20.2 °C 15.8 °C 1020.5 hPa North 7.2 km/h 30.6 km/h 76 % 0 mm
03:19 20.2 °C 15.7 °C 1020.5 hPa NNW 7.2 km/h 20.9 km/h 75 % 0 mm
03:24 20.2 °C 15.7 °C 1020.5 hPa NNW 7.2 km/h 18.3 km/h 75 % 0 mm
03:29 20.2 °C 15.4 °C 1020.5 hPa NW 6.1 km/h 20.9 km/h 74 % 0 mm
03:34 20.2 °C 15.4 °C 1020.5 hPa WNW 8.7 km/h 21.9 km/h 74 % 0 mm
03:39 20.3 °C 15.5 °C 1020.5 hPa WNW 8.7 km/h 21.9 km/h 74 % 0 mm
03:44 20.3 °C 15.5 °C 1020.5 hPa WNW 5 km/h 21.9 km/h 74 % 0 mm
03:49 20.3 °C 15.5 °C 1020.5 hPa WNW 7.2 km/h 21.9 km/h 74 % 0 mm
03:54 20.3 °C 15.5 °C 1020.5 hPa WNW 9.7 km/h 19.5 km/h 74 % 0 mm
03:59 20.3 °C 15.3 °C 1020.5 hPa WNW 6.1 km/h 21.9 km/h 73 % 0 mm
04:04 20.3 °C 15.3 °C 1020.5 hPa WNW 9.7 km/h 21.9 km/h 73 % 0 mm
04:09 20.4 °C 15.6 °C 1020.5 hPa WNW 7.2 km/h 21.9 km/h 74 % 0 mm
04:14 20.3 °C 15.5 °C 1020.5 hPa WNW 11.1 km/h 20.9 km/h 74 % 0 mm
04:19 20.3 °C 15.3 °C 1020.5 hPa NW 7.2 km/h 23.3 km/h 73 % 0 mm
04:24 20.3 °C 15.5 °C 1020.5 hPa NW 7.2 km/h 23.3 km/h 74 % 0 mm
04:29 20.3 °C 14.9 °C 1020.5 hPa NNW 8.7 km/h 23.3 km/h 71 % 0 mm
04:34 20.3 °C 14.9 °C 1020.5 hPa NW 6.1 km/h 19.5 km/h 71 % 0 mm
04:39 20.2 °C 14.6 °C 1020.5 hPa NW 5 km/h 17.2 km/h 70 % 0 mm
04:44 20.3 °C 14.2 °C 1020.2 hPa NW 8.7 km/h 17.2 km/h 68 % 0 mm
04:49 20.2 °C 13.9 °C 1020.5 hPa NNW 8.7 km/h 17.2 km/h 67 % 0 mm
04:54 20.3 °C 13.8 °C 1020.2 hPa NNW 2.6 km/h 17.2 km/h 66 % 0 mm
04:59 20.2 °C 13.4 °C 1020.2 hPa WNW 8.7 km/h 19.5 km/h 65 % 0 mm
05:04 20.4 °C 14.6 °C 1020.2 hPa WNW 9.7 km/h 20.9 km/h 69 % 0 mm
05:09 20.5 °C 14.6 °C 1020.2 hPa NNW 6.1 km/h 20.9 km/h 69 % 0 mm
05:14 20.6 °C 15.2 °C 1020.2 hPa NNW 5 km/h 20.9 km/h 71 % 0 mm
05:19 20.6 °C 15.4 °C 1020.5 hPa NNW 7.2 km/h 19.5 km/h 72 % 0 mm
05:24 20.7 °C 15.5 °C 1020.2 hPa NW 6.1 km/h 19.5 km/h 72 % 0 mm
05:29 20.7 °C 15.7 °C 1020.5 hPa NNW 6.1 km/h 18.3 km/h 73 % 0 mm
05:34 20.7 °C 15.5 °C 1020.5 hPa NNW 6.1 km/h 18.3 km/h 72 % 0 mm
05:39 20.6 °C 15.6 °C 1020.5 hPa NNW 6.1 km/h 15.8 km/h 73 % 0 mm
05:44 20.6 °C 15.8 °C 1020.5 hPa NW 7.2 km/h 17.2 km/h 74 % 0 mm
05:49 20.6 °C 15.8 °C 1020.5 hPa NW 8.7 km/h 17.2 km/h 74 % 0 mm
05:54 20.7 °C 15.9 °C 1020.5 hPa NW 7.2 km/h 19.5 km/h 74 % 0 mm
05:59 20.6 °C 16 °C 1020.5 hPa NW 5 km/h 19.5 km/h 75 % 0 mm
06:04 20.6 °C 15.8 °C 1020.5 hPa NW 8.7 km/h 15.8 km/h 74 % 0 mm
06:09 20.5 °C 15.7 °C 1020.5 hPa NNW 7.2 km/h 15.8 km/h 74 % 0 mm
06:14 20.5 °C 15.7 °C 1020.5 hPa NNW 9.7 km/h 19.5 km/h 74 % 0 mm
06:19 20.6 °C 15.8 °C 1020.5 hPa NW 11.1 km/h 23.3 km/h 74 % 0 mm
06:24 20.6 °C 15.8 °C 1020.2 hPa NW 8.7 km/h 23.3 km/h 74 % 0 mm
06:29 20.6 °C 15.8 °C 1020.5 hPa NW 7.2 km/h 23.3 km/h 74 % 0 mm
06:34 20.5 °C 15.7 °C 1020.5 hPa NNW 6.1 km/h 15.8 km/h 74 % 0 mm
06:39 20.5 °C 15.7 °C 1020.2 hPa NNW 6.1 km/h 17.2 km/h 74 % 0 mm
06:44 20.6 °C 15.8 °C 1020.5 hPa NW 5 km/h 17.2 km/h 74 % 0 mm
06:49 20.5 °C 15.7 °C 1020.5 hPa NW 7.2 km/h 15.8 km/h 74 % 0 mm
06:54 20.6 °C 15.8 °C 1020.5 hPa NW 8.7 km/h 19.5 km/h 74 % 0 mm
06:59 20.6 °C 15.8 °C 1020.5 hPa NW 5 km/h 19.5 km/h 74 % 0 mm
07:04 20.7 °C 15.7 °C 1020.5 hPa NNW 8.7 km/h 18.3 km/h 73 % 0 mm
07:09 20.7 °C 15.7 °C 1020.5 hPa NNW 7.2 km/h 18.3 km/h 73 % 0 mm
07:14 20.7 °C 15.9 °C 1020.5 hPa NNW 8.7 km/h 19.5 km/h 74 % 0 mm
07:19 20.7 °C 15.7 °C 1020.5 hPa NW 6.1 km/h 19.5 km/h 73 % 0 mm
07:24 20.7 °C 15.9 °C 1020.5 hPa WNW 6.1 km/h 21.9 km/h 74 % 0 mm
07:29 20.8 °C 16 °C 1020.5 hPa WNW 7.2 km/h 21.9 km/h 74 % 0 mm
07:34 20.8 °C 16 °C 1020.9 hPa NW 5 km/h 21.9 km/h 74 % 0 mm
07:39 20.8 °C 15.8 °C 1020.9 hPa NW 5 km/h 14.8 km/h 73 % 0 mm
07:44 20.8 °C 15.8 °C 1020.9 hPa NNW 6.1 km/h 17.2 km/h 73 % 0 mm
07:49 20.9 °C 15.9 °C 1020.9 hPa NNW 3.5 km/h 17.2 km/h 73 % 0 mm
07:54 20.9 °C 15.9 °C 1020.9 hPa NNW 3.5 km/h 13.4 km/h 73 % 0 mm
07:59 20.9 °C 15.9 °C 1020.9 hPa NW 3.5 km/h 14.8 km/h 73 % 0 mm
08:04 21 °C 16 °C 1020.9 hPa NW 8.7 km/h 20.9 km/h 73 % 0 mm
08:09 21.1 °C 16.1 °C 1021.2 hPa NNW 5 km/h 20.9 km/h 73 % 0 mm
08:14 21.2 °C 16.2 °C 1021.2 hPa NNW 2.6 km/h 20.9 km/h 73 % 0 mm
08:19 21.3 °C 16.3 °C 1021.2 hPa NW 8.7 km/h 15.8 km/h 73 % 0 mm
08:24 21.4 °C 16.4 °C 1021.2 hPa NNW 5 km/h 15.8 km/h 73 % 0 mm
08:29 21.6 °C 16.3 °C 1021.2 hPa NNW 3.5 km/h 15.8 km/h 72 % 0 mm
08:34 21.7 °C 16.4 °C 1021.2 hPa North 8.7 km/h 15.8 km/h 72 % 0 mm
08:39 21.8 °C 16.6 °C 1021.2 hPa NNW 5 km/h 15.8 km/h 72 % 0 mm
08:44 21.9 °C 16.7 °C 1021.2 hPa NNW 3.5 km/h 17.2 km/h 72 % 0 mm
08:49 21.9 °C 16.4 °C 1021.2 hPa NW 3.5 km/h 17.2 km/h 71 % 0 mm
08:54 22 °C 16.5 °C 1021.2 hPa NW 5 km/h 14.8 km/h 71 % 0 mm
08:59 22.1 °C 16.6 °C 1021.6 hPa North 6.1 km/h 13.4 km/h 71 % 0 mm
09:04 22.2 °C 16.7 °C 1021.2 hPa NNE 3.5 km/h 13.4 km/h 71 % 0 mm
09:09 22.2 °C 16.5 °C 1021.6 hPa NNW 3.5 km/h 13.4 km/h 70 % 0 mm
09:14 22.2 °C 16.7 °C 1021.6 hPa NNW 5 km/h 13.4 km/h 71 % 0 mm
09:19 22.2 °C 16.9 °C 1021.6 hPa North 9.7 km/h 18.3 km/h 72 % 0 mm
09:24 22.3 °C 17 °C 1021.6 hPa North 3.5 km/h 18.3 km/h 72 % 0 mm
09:29 22.5 °C 17 °C 1021.6 hPa North 5 km/h 13.4 km/h 71 % 0 mm
09:34 22.6 °C 17.1 °C 1021.9 hPa North 7.2 km/h 11.1 km/h 71 % 0 mm
09:39 22.7 °C 17.2 °C 1021.9 hPa North 6.1 km/h 18.3 km/h 71 % 0 mm
09:44 22.8 °C 17.3 °C 1021.9 hPa North 5 km/h 18.3 km/h 71 % 0 mm
09:49 22.8 °C 17.3 °C 1021.9 hPa North 5 km/h 13.4 km/h 71 % 0 mm
09:54 22.8 °C 17.3 °C 1021.9 hPa North 6.1 km/h 11.1 km/h 71 % 0 mm
09:59 22.5 °C 17.2 °C 1021.9 hPa North 6.1 km/h 18.3 km/h 72 % 0 mm
10:04 22.4 °C 17.6 °C 1021.9 hPa North 8.7 km/h 19.5 km/h 74 % 0 mm
10:09 22.4 °C 17.6 °C 1021.9 hPa NNE 6.1 km/h 19.5 km/h 74 % 0 mm
10:14 22.4 °C 17.6 °C 1021.9 hPa North 3.5 km/h 19.5 km/h 74 % 0 mm
10:19 22.6 °C 17.7 °C 1022.2 hPa NNW 3.5 km/h 14.8 km/h 74 % 0 mm
10:24 22.7 °C 17.6 °C 1022.2 hPa NNW 6.1 km/h 13.4 km/h 73 % 0 mm
10:29 22.8 °C 17.7 °C 1022.2 hPa NNW 3.5 km/h 17.2 km/h 73 % 0 mm
10:34 23 °C 17.9 °C 1022.2 hPa North 12.2 km/h 19.5 km/h 73 % 0 mm
10:39 23.1 °C 18 °C 1022.2 hPa North 3.5 km/h 19.5 km/h 73 % 0 mm
10:44 23.3 °C 18 °C 1022.2 hPa NNW 5 km/h 19.5 km/h 72 % 0 mm
10:49 23.3 °C 18 °C 1022.2 hPa NNW 11.1 km/h 19.5 km/h 72 % 0 mm
10:54 23.3 °C 18 °C 1022.2 hPa North 3.5 km/h 19.5 km/h 72 % 0 mm
10:59 23.2 °C 18.3 °C 1022.2 hPa North 8.7 km/h 18.3 km/h 74 % 0 mm
11:04 23.1 °C 18.2 °C 1022.2 hPa North 3.5 km/h 19.5 km/h 74 % 0 mm
11:09 23.1 °C 18.2 °C 1022.2 hPa North 8.7 km/h 19.5 km/h 74 % 0 mm
11:14 23.1 °C 18.2 °C 1022.2 hPa North 8.7 km/h 15.8 km/h 74 % 0 mm
11:19 23.2 °C 18.6 °C 1022.2 hPa North 12.2 km/h 17.2 km/h 75 % 0 mm
11:24 23.1 °C 18.4 °C 1022.6 hPa North 9.7 km/h 18.3 km/h 75 % 0 mm
11:29 23.1 °C 18.4 °C 1022.6 hPa NNE 8.7 km/h 19.5 km/h 75 % 0 mm
11:34 23 °C 18.6 °C 1022.6 hPa North 6.1 km/h 19.5 km/h 76 % 0 mm
11:39 23 °C 18.6 °C 1022.6 hPa North 8.7 km/h 18.3 km/h 76 % 0 mm
11:44 23 °C 18.6 °C 1022.6 hPa North 8.7 km/h 24.5 km/h 76 % 0 mm
11:49 23 °C 18.6 °C 1022.2 hPa NNW 6.1 km/h 24.5 km/h 76 % 0 mm
11:54 23 °C 18.6 °C 1022.6 hPa NW 5 km/h 20.9 km/h 76 % 0 mm
11:59 23.1 °C 18.7 °C 1022.6 hPa WNW 7.2 km/h 20.9 km/h 76 % 0 mm
12:04 23.1 °C 18.4 °C 1022.6 hPa NW 14.8 km/h 19.5 km/h 75 % 0 mm
12:09 23.2 °C 18.6 °C 1022.6 hPa NNW 8.7 km/h 24.5 km/h 75 % 0 mm
12:14 23.3 °C 18.8 °C 1022.6 hPa North 5 km/h 24.5 km/h 76 % 0 mm
12:19 23.5 °C 18.8 °C 1022.6 hPa NNE 6.1 km/h 20.9 km/h 75 % 0 mm
12:24 23.6 °C 18.9 °C 1022.6 hPa NNW 9.7 km/h 21.9 km/h 75 % 0 mm
12:29 23.7 °C 19 °C 1022.6 hPa NW 9.7 km/h 21.9 km/h 75 % 0 mm
12:34 23.7 °C 18.8 °C 1022.6 hPa NNW 13.4 km/h 20.9 km/h 74 % 0 mm
12:39 23.8 °C 18.9 °C 1022.6 hPa North 6.1 km/h 27 km/h 74 % 0 mm
12:44 24.1 °C 19 °C 1022.6 hPa North 12.2 km/h 27 km/h 73 % 0 mm
12:49 24.2 °C 18.8 °C 1022.6 hPa NNW 12.2 km/h 20.9 km/h 72 % 0 mm
12:54 24.3 °C 18.9 °C 1022.6 hPa North 11.1 km/h 20.9 km/h 72 % 0 mm
12:59 24.4 °C 19.1 °C 1022.6 hPa North 12.2 km/h 21.9 km/h 72 % 0 mm
13:04 24.4 °C 18.8 °C 1022.6 hPa NNW 8.7 km/h 21.9 km/h 71 % 0 mm
13:09 24.5 °C 18.9 °C 1022.6 hPa North 13.4 km/h 24.5 km/h 71 % 0 mm
13:14 24.5 °C 18.9 °C 1022.6 hPa North 6.1 km/h 24.5 km/h 71 % 0 mm
13:19 24.8 °C 19 °C 1022.2 hPa North 5 km/h 24.5 km/h 70 % 0 mm
13:24 24.9 °C 18.8 °C 1022.6 hPa North 8.7 km/h 25.6 km/h 69 % 0 mm
13:29 24.9 °C 19.1 °C 1022.6 hPa NNW 8.7 km/h 25.6 km/h 70 % 0 mm
13:34 25 °C 18.7 °C 1022.6 hPa NNW 6.1 km/h 24.5 km/h 68 % 0 mm
13:39 24.9 °C 18.6 °C 1022.6 hPa North 7.2 km/h 24.5 km/h 68 % 0 mm
13:44 24.7 °C 18.7 °C 1022.6 hPa NNW 7.2 km/h 19.5 km/h 69 % 0 mm
13:49 24.8 °C 18.7 °C 1022.2 hPa NNW 5 km/h 18.3 km/h 69 % 0 mm
13:54 25 °C 18.9 °C 1022.2 hPa NNW 9.7 km/h 19.5 km/h 69 % 0 mm
13:59 25.2 °C 18.9 °C 1022.2 hPa NNW 8.7 km/h 21.9 km/h 68 % 0 mm
14:04 25.2 °C 18.4 °C 1022.2 hPa North 9.7 km/h 21.9 km/h 66 % 0 mm
14:09 25.4 °C 18.6 °C 1022.2 hPa North 8.7 km/h 18.3 km/h 66 % 0 mm
14:14 25.4 °C 17.9 °C 1022.2 hPa NNE 9.7 km/h 21.9 km/h 63 % 0 mm
14:19 25.4 °C 17.9 °C 1021.9 hPa NNW 12.2 km/h 21.9 km/h 63 % 0 mm
14:24 25.5 °C 17.9 °C 1022.2 hPa NW 7.2 km/h 21.9 km/h 63 % 0 mm
14:29 25.6 °C 17.6 °C 1021.9 hPa NNW 9.7 km/h 21.9 km/h 61 % 0 mm
14:34 25.6 °C 17.3 °C 1021.9 hPa North 8.7 km/h 23.3 km/h 60 % 0 mm
14:39 25.7 °C 17.1 °C 1021.9 hPa NNE 14.8 km/h 24.5 km/h 59 % 0 mm
14:44 25.7 °C 16.8 °C 1021.9 hPa NE 13.4 km/h 25.6 km/h 58 % 0 mm
14:49 25.5 °C 16.9 °C 1021.9 hPa NNE 12.2 km/h 28 km/h 59 % 0 mm
14:54 25.6 °C 17 °C 1021.9 hPa North 5 km/h 28 km/h 59 % 0 mm
14:59 25.8 °C 17.4 °C 1021.9 hPa North 6.1 km/h 21.9 km/h 60 % 0 mm
15:04 25.8 °C 17.4 °C 1021.9 hPa NNW 8.7 km/h 21.9 km/h 60 % 0 mm
15:09 25.8 °C 17.2 °C 1021.9 hPa NNW 9.7 km/h 21.9 km/h 59 % 0 mm
15:14 25.7 °C 17.4 °C 1021.9 hPa NNW 11.1 km/h 21.9 km/h 60 % 0 mm
15:19 25.6 °C 17.3 °C 1021.9 hPa NNW 9.7 km/h 30.6 km/h 60 % 0 mm
15:24 25.6 °C 17.6 °C 1021.9 hPa North 12.2 km/h 30.6 km/h 61 % 0 mm
15:29 25.5 °C 17.4 °C 1021.6 hPa North 9.7 km/h 24.5 km/h 61 % 0 mm
15:34 25.3 °C 17.5 °C 1021.9 hPa North 14.8 km/h 24.5 km/h 62 % 0 mm
15:39 25.2 °C 17.9 °C 1021.6 hPa North 8.7 km/h 24.5 km/h 64 % 0 mm
15:44 25.1 °C 17.8 °C 1021.9 hPa NNW 13.4 km/h 21.9 km/h 64 % 0 mm
15:49 25.1 °C 17.8 °C 1021.9 hPa NNW 11.1 km/h 23.3 km/h 64 % 0 mm
15:54 25.2 °C 17.9 °C 1021.9 hPa NNW 9.7 km/h 23.3 km/h 64 % 0 mm
15:59 25.2 °C 17.9 °C 1021.6 hPa NNW 12.2 km/h 21.9 km/h 64 % 0 mm
16:04 25.2 °C 17.9 °C 1021.6 hPa North 11.1 km/h 21.9 km/h 64 % 0 mm
16:09 25.2 °C 17.7 °C 1021.6 hPa North 8.7 km/h 23.3 km/h 63 % 0 mm
16:14 25.1 °C 17.6 °C 1021.6 hPa North 14.8 km/h 25.6 km/h 63 % 0 mm
16:19 25 °C 17.7 °C 1021.6 hPa NNE 15.8 km/h 28 km/h 64 % 0 mm
16:24 25 °C 18.2 °C 1021.6 hPa North 17.2 km/h 29.5 km/h 66 % 0 mm
16:29 24.8 °C 18.1 °C 1021.6 hPa North 13.4 km/h 29.5 km/h 66 % 0 mm
16:34 24.9 °C 18.1 °C 1021.6 hPa NNE 13.4 km/h 28 km/h 66 % 0 mm
16:39 24.7 °C 18.2 °C 1021.6 hPa NNE 6.1 km/h 27 km/h 67 % 0 mm
16:44 24.7 °C 18.2 °C 1021.6 hPa North 6.1 km/h 30.6 km/h 67 % 0 mm
16:49 24.9 °C 18.6 °C 1021.6 hPa North 5 km/h 30.6 km/h 68 % 0 mm
16:54 25 °C 18.4 °C 1021.6 hPa North 8.7 km/h 17.2 km/h 67 % 0 mm
16:59 25.1 °C 18.3 °C 1021.6 hPa NNE 12.2 km/h 18.3 km/h 66 % 0 mm
17:04 24.7 °C 18.4 °C 1021.6 hPa NNE 9.7 km/h 23.3 km/h 68 % 0 mm
17:09 24.4 °C 18.4 °C 1021.6 hPa North 11.1 km/h 28 km/h 69 % 0 mm
17:14 24.4 °C 18.8 °C 1021.6 hPa North 11.1 km/h 29.5 km/h 71 % 0 mm
MeteoMachico
Cumprimentos de Weather Underground - 3.75 mb

Script original por  Jim McMurry - jmcmurry@mwt.net Adaptado para o modelo por  Wim van der Kuil - Leuven-Template.eu

Equipamento que usamos:

Estação Meteorológica
Weatherwise ws-1080

IPCAM
Dericam H502W

Servidor
Digital Ocean

Weatherwise ws-1080

Dericam H502W

Digital Ocean